createdAt,value
2019-04-30T00:01:48.599Z,44.30
2019-04-30T00:04:30.019Z,33.23
2019-04-30T00:07:05.634Z,34.97
2019-04-30T00:09:38.726Z,33.53
2019-04-30T00:12:11.138Z,30.03
2019-04-30T00:14:42.229Z,32.53
2019-04-30T00:17:15.931Z,35.20
2019-04-30T00:19:50.377Z,31.63
2019-04-30T00:22:33.091Z,31.50
2019-04-30T00:24:59.158Z,38.50
2019-04-30T00:27:30.409Z,32.93
2019-04-30T00:30:05.409Z,35.30
2019-04-30T00:32:43.501Z,31.37
2019-04-30T00:35:15.521Z,29.07
2019-04-30T00:37:45.000Z,32.80
2019-04-30T00:40:21.729Z,31.03
2019-04-30T00:42:55.957Z,24.57
2019-04-30T00:45:30.201Z,36.13
2019-04-30T00:48:02.383Z,27.13
2019-04-30T00:50:37.146Z,25.37
2019-04-30T00:53:12.529Z,31.13
2019-04-30T00:55:44.318Z,25.83
2019-04-30T00:58:11.628Z,27.67
2019-04-30T01:00:51.321Z,25.20
2019-04-30T01:03:26.356Z,22.70
2019-04-30T01:05:57.650Z,22.90
2019-04-30T01:08:28.783Z,25.00
2019-04-30T01:11:03.872Z,25.70
2019-04-30T01:13:33.257Z,24.40
2019-04-30T01:16:04.301Z,23.73
2019-04-30T01:18:35.392Z,23.03
2019-04-30T01:21:07.881Z,24.30
2019-04-30T01:23:43.094Z,26.00
2019-04-30T01:26:12.164Z,25.37
2019-04-30T01:28:42.996Z,22.97
2019-04-30T01:31:14.101Z,20.47
2019-04-30T01:33:45.189Z,23.67
2019-04-30T01:36:16.206Z,23.47
2019-04-30T01:38:51.065Z,18.97
2019-04-30T01:41:27.489Z,20.53
2019-04-30T01:43:53.192Z,22.60
2019-04-30T01:46:25.212Z,22.10
2019-04-30T01:48:56.020Z,21.07
2019-04-30T01:51:28.585Z,21.50
2019-04-30T01:54:00.277Z,22.50
2019-04-30T01:56:42.291Z,19.30
2019-04-30T01:59:19.694Z,21.43
2019-04-30T02:01:50.825Z,21.73
2019-04-30T02:04:21.837Z,29.17
2019-04-30T02:06:53.198Z,23.80
2019-04-30T02:09:24.167Z,23.87
2019-04-30T02:11:55.222Z,26.93
2019-04-30T02:14:26.116Z,24.03
2019-04-30T02:16:57.133Z,21.03
2019-04-30T02:19:28.779Z,20.90
2019-04-30T02:22:01.427Z,22.63
2019-04-30T02:24:32.601Z,22.87
2019-04-30T02:27:04.604Z,24.40
2019-04-30T02:29:35.651Z,27.73
2019-04-30T02:32:06.757Z,25.63
2019-04-30T02:34:44.490Z,21.57
2019-04-30T02:37:24.886Z,21.70
2019-04-30T02:39:56.370Z,20.67
2019-04-30T02:42:29.691Z,22.13
2019-04-30T02:45:03.926Z,20.53
2019-04-30T02:47:35.921Z,21.77
2019-04-30T02:50:15.416Z,23.03
2019-04-30T02:52:41.861Z,21.53
2019-04-30T02:55:16.085Z,21.53
2019-04-30T02:57:49.736Z,20.43
2019-04-30T03:00:20.874Z,23.03
2019-04-30T03:02:52.484Z,23.97
2019-04-30T03:05:23.572Z,20.03
2019-04-30T03:07:54.733Z,19.23
2019-04-30T03:10:25.674Z,21.20
2019-04-30T03:12:56.953Z,17.20
2019-04-30T03:15:29.904Z,20.10
2019-04-30T03:18:11.323Z,19.07
2019-04-30T03:21:05.983Z,20.27
2019-04-30T03:23:39.109Z,19.63
2019-04-30T03:26:12.981Z,19.10
2019-04-30T03:28:43.439Z,17.23
2019-04-30T03:31:16.967Z,18.17
2019-04-30T03:33:51.993Z,21.23
2019-04-30T03:36:22.143Z,17.00
2019-04-30T03:38:53.412Z,21.43
2019-04-30T03:41:24.574Z,18.83
2019-04-30T03:43:55.834Z,17.70
2019-04-30T03:46:29.658Z,20.03
2019-04-30T03:49:00.229Z,15.40
2019-04-30T03:51:31.385Z,15.90
2019-04-30T03:56:25.788Z,18.63
2019-04-30T03:58:56.800Z,19.20
2019-04-30T04:01:36.419Z,14.60
2019-04-30T04:04:30.925Z,13.63
2019-04-30T04:07:12.115Z,15.60
2019-04-30T04:09:49.948Z,16.60
2019-04-30T04:12:24.696Z,13.00
2019-04-30T04:14:55.755Z,13.83
2019-04-30T04:17:31.461Z,14.60
2019-04-30T04:20:02.924Z,15.80
2019-04-30T04:22:33.783Z,11.93
2019-04-30T04:25:12.784Z,13.97
2019-04-30T04:27:41.716Z,14.30
2019-04-30T04:30:13.160Z,13.53
2019-04-30T04:32:44.467Z,14.27
2019-04-30T04:35:15.367Z,13.00
2019-04-30T04:37:48.990Z,13.53
2019-04-30T04:40:42.016Z,11.60
2019-04-30T04:43:36.993Z,10.00
2019-04-30T04:46:11.002Z,11.83
2019-04-30T04:48:41.913Z,11.57
2019-04-30T04:51:27.689Z,12.73
2019-04-30T04:53:46.672Z,10.23
2019-04-30T04:56:19.054Z,13.17
2019-04-30T04:58:50.649Z,9.70
2019-04-30T05:01:21.892Z,10.87
2019-04-30T05:03:52.812Z,11.57
2019-04-30T05:06:25.409Z,11.03
2019-04-30T05:08:56.347Z,12.67
2019-04-30T05:11:29.383Z,11.50
2019-04-30T05:14:00.322Z,12.67
2019-04-30T05:16:31.003Z,8.80
2019-04-30T05:19:03.020Z,8.80
2019-04-30T05:21:42.828Z,10.87
2019-04-30T05:24:09.057Z,11.57
2019-04-30T05:26:40.737Z,11.00
2019-04-30T05:29:11.975Z,10.30
2019-04-30T05:31:42.896Z,8.80
2019-04-30T05:34:14.033Z,7.60
2019-04-30T05:36:46.465Z,9.37
2019-04-30T05:39:18.837Z,8.57
2019-04-30T05:41:54.223Z,7.53
2019-04-30T05:44:26.703Z,7.57
2019-04-30T05:47:01.102Z,7.27
2019-04-30T05:49:34.094Z,13.50
2019-04-30T05:52:05.393Z,11.40
2019-04-30T05:54:38.996Z,7.50
2019-04-30T05:57:09.779Z,11.97
2019-04-30T05:59:40.877Z,6.83
2019-04-30T06:02:12.016Z,6.23
2019-04-30T06:04:48.865Z,5.60
2019-04-30T06:07:19.896Z,6.50
2019-04-30T06:10:01.611Z,9.20
2019-04-30T06:13:04.478Z,8.37
2019-04-30T06:15:51.827Z,6.97
2019-04-30T06:18:23.088Z,5.27
2019-04-30T06:20:55.669Z,8.47
2019-04-30T06:23:29.260Z,8.30
2019-04-30T06:26:09.407Z,13.97
2019-04-30T06:28:41.499Z,6.17
2019-04-30T06:31:12.488Z,9.53
2019-04-30T06:33:43.514Z,7.90
2019-04-30T06:36:14.375Z,6.70
2019-04-30T06:38:50.293Z,6.63
2019-04-30T06:41:21.298Z,5.30
2019-04-30T06:43:53.552Z,6.00
2019-04-30T06:46:24.618Z,5.43
2019-04-30T06:48:56.464Z,9.77
2019-04-30T06:51:30.611Z,7.47
2019-04-30T06:54:00.139Z,11.57
2019-04-30T06:56:32.671Z,9.10
2019-04-30T06:59:03.793Z,8.77
2019-04-30T07:01:34.778Z,6.57
2019-04-30T07:04:06.344Z,5.57
2019-04-30T07:06:43.988Z,10.73
2019-04-30T07:09:33.519Z,6.83
2019-04-30T07:12:27.072Z,5.47
2019-04-30T07:14:53.154Z,7.73
2019-04-30T07:17:24.971Z,8.57
2019-04-30T07:19:56.924Z,6.37
2019-04-30T07:22:40.147Z,6.80
2019-04-30T07:25:06.984Z,9.07
2019-04-30T07:27:40.330Z,6.77
2019-04-30T07:30:15.274Z,6.87
2019-04-30T07:32:48.851Z,9.37
2019-04-30T07:35:19.919Z,8.20
2019-04-30T07:37:54.679Z,7.03
2019-04-30T07:40:24.345Z,6.57
2019-04-30T07:42:55.491Z,8.00
2019-04-30T07:45:31.573Z,7.00
2019-04-30T07:47:59.949Z,7.17
2019-04-30T07:50:32.072Z,6.33
2019-04-30T07:53:07.908Z,6.77
2019-04-30T07:55:43.105Z,5.93
2019-04-30T07:58:16.294Z,5.70
2019-04-30T08:00:50.307Z,7.87
2019-04-30T08:03:35.279Z,7.50
2019-04-30T08:06:09.818Z,5.50
2019-04-30T08:08:44.907Z,7.27
2019-04-30T08:11:25.595Z,6.93
2019-04-30T08:13:59.089Z,7.37
2019-04-30T08:16:32.091Z,6.83
2019-04-30T08:19:09.123Z,8.90
2019-04-30T08:21:43.741Z,6.97
2019-04-30T08:24:14.908Z,7.40
2019-04-30T08:26:49.394Z,6.90
2019-04-30T08:29:23.536Z,6.37
2019-04-30T08:31:59.459Z,9.13
2019-04-30T08:34:36.169Z,6.77
2019-04-30T08:37:17.029Z,5.50
2019-04-30T08:39:42.241Z,10.97
2019-04-30T08:42:28.216Z,6.13
2019-04-30T08:44:49.374Z,6.20
2019-04-30T08:47:21.274Z,9.63
2019-04-30T08:49:55.581Z,6.60
2019-04-30T08:52:32.851Z,8.23
2019-04-30T08:55:16.544Z,6.40
2019-04-30T08:57:50.058Z,7.33
2019-04-30T09:00:23.380Z,7.40
2019-04-30T09:02:59.334Z,5.77
2019-04-30T09:05:53.187Z,7.50
2019-04-30T09:08:25.708Z,6.63
2019-04-30T09:10:59.516Z,6.10
2019-04-30T09:13:32.034Z,11.63
2019-04-30T09:16:03.290Z,10.43
2019-04-30T09:18:40.328Z,6.40
2019-04-30T09:21:12.759Z,6.60
2019-04-30T09:23:52.713Z,6.37
2019-04-30T09:26:22.152Z,6.53
2019-04-30T09:29:01.933Z,6.20
2019-04-30T09:31:35.331Z,6.80
2019-04-30T09:34:17.131Z,6.23
2019-04-30T09:36:46.465Z,9.17
2019-04-30T09:39:19.621Z,10.10
2019-04-30T09:41:50.719Z,7.10
2019-04-30T09:44:24.667Z,9.07
2019-04-30T09:46:58.869Z,9.20
2019-04-30T09:49:30.498Z,6.47
2019-04-30T09:52:05.992Z,6.97
2019-04-30T09:54:39.909Z,6.77
2019-04-30T09:57:11.590Z,6.93
2019-04-30T09:59:45.157Z,6.03
2019-04-30T10:02:16.598Z,12.03
2019-04-30T10:04:49.604Z,7.07
2019-04-30T10:07:21.203Z,7.13
2019-04-30T10:09:53.603Z,8.27
2019-04-30T10:12:30.328Z,6.70
2019-04-30T10:15:04.241Z,7.70
2019-04-30T10:17:40.006Z,5.40
2019-04-30T10:20:18.252Z,13.87
2019-04-30T10:22:54.704Z,9.30
2019-04-30T10:25:32.296Z,6.53
2019-04-30T10:28:10.092Z,7.80
2019-04-30T10:30:43.093Z,8.20
2019-04-30T10:33:14.557Z,6.77
2019-04-30T10:35:49.115Z,9.63
2019-04-30T10:38:19.739Z,6.57
2019-04-30T10:40:50.923Z,6.17
2019-04-30T10:43:22.057Z,5.70
2019-04-30T10:45:58.588Z,5.93
2019-04-30T10:48:39.903Z,7.80
2019-04-30T10:51:12.728Z,8.30
2019-04-30T10:53:48.627Z,7.53
2019-04-30T10:56:23.037Z,5.47
2019-04-30T10:58:55.690Z,4.93
2019-04-30T11:01:29.214Z,5.97
2019-04-30T11:04:03.379Z,5.67
2019-04-30T11:06:35.356Z,6.03
2019-04-30T11:09:08.693Z,9.27
2019-04-30T11:11:39.903Z,5.83
2019-04-30T11:14:12.146Z,5.93
2019-04-30T11:16:44.353Z,5.53
2019-04-30T11:19:19.038Z,8.13
2019-04-30T11:21:50.196Z,5.77
2019-04-30T11:24:23.069Z,5.37
2019-04-30T11:26:55.735Z,7.00
2019-04-30T11:29:30.906Z,5.70
2019-04-30T11:32:32.551Z,5.50
2019-04-30T11:35:23.870Z,7.40
2019-04-30T11:38:01.725Z,5.57
2019-04-30T11:40:37.201Z,8.03
2019-04-30T11:43:23.207Z,6.57
2019-04-30T11:46:38.597Z,7.50
2019-04-30T11:49:12.597Z,6.27
2019-04-30T11:51:44.594Z,6.63
2019-04-30T11:54:26.789Z,5.80
2019-04-30T11:57:14.500Z,5.90
2019-04-30T11:59:46.420Z,7.77
2019-04-30T12:02:39.346Z,6.20
2019-04-30T12:05:15.564Z,6.30
2019-04-30T12:08:06.366Z,7.60
2019-04-30T12:10:57.307Z,6.87
2019-04-30T12:13:47.198Z,8.30
2019-04-30T12:16:12.287Z,5.23
2019-04-30T12:18:48.686Z,6.27
2019-04-30T12:21:21.138Z,5.30
2019-04-30T12:23:52.615Z,5.50
2019-04-30T12:26:28.776Z,7.07
2019-04-30T12:28:59.159Z,5.47
2019-04-30T12:31:29.930Z,5.53
2019-04-30T12:34:00.682Z,12.50
2019-04-30T12:36:34.025Z,7.43
2019-04-30T12:39:11.568Z,5.60
2019-04-30T12:41:50.476Z,6.57
2019-04-30T12:44:21.309Z,5.97
2019-04-30T12:46:55.293Z,4.80
2019-04-30T12:49:46.588Z,4.57
2019-04-30T12:52:24.534Z,7.23
2019-04-30T12:55:14.952Z,5.30
2019-04-30T12:57:58.545Z,4.93
2019-04-30T13:00:31.729Z,6.23
2019-04-30T13:03:08.336Z,5.13
2019-04-30T13:05:40.533Z,4.87
2019-04-30T13:08:15.456Z,5.17
2019-04-30T13:10:48.822Z,4.50
2019-04-30T13:13:24.256Z,4.83
2019-04-30T13:16:01.171Z,5.80
2019-04-30T13:18:39.396Z,6.90
2019-04-30T13:21:15.201Z,6.23
2019-04-30T13:23:46.887Z,7.20
2019-04-30T13:26:19.426Z,6.50
2019-04-30T13:28:59.728Z,4.53
2019-04-30T13:31:31.589Z,6.33
2019-04-30T13:34:24.084Z,6.23
2019-04-30T13:37:05.634Z,5.77
2019-04-30T13:39:52.129Z,5.53
2019-04-30T13:42:30.980Z,5.47
2019-04-30T13:45:06.213Z,5.23
2019-04-30T13:47:40.059Z,5.40
2019-04-30T13:50:15.575Z,6.50
2019-04-30T13:52:49.685Z,4.70
2019-04-30T13:55:30.486Z,4.70
2019-04-30T13:58:01.880Z,5.13
2019-04-30T14:00:39.616Z,5.30
2019-04-30T14:03:23.654Z,7.17
2019-04-30T14:05:59.477Z,6.73
2019-04-30T14:08:38.870Z,6.97
2019-04-30T14:11:14.521Z,6.50
2019-04-30T14:13:47.368Z,6.47
2019-04-30T14:16:18.443Z,6.63
2019-04-30T14:19:10.171Z,6.23
2019-04-30T14:21:49.436Z,7.87
2019-04-30T14:24:21.693Z,7.70
2019-04-30T14:26:58.945Z,6.50
2019-04-30T14:29:30.190Z,10.63
2019-04-30T14:32:05.836Z,7.73
2019-04-30T14:34:50.458Z,6.90
2019-04-30T14:37:19.625Z,7.53
2019-04-30T14:39:58.619Z,6.30
2019-04-30T14:42:37.600Z,7.03
2019-04-30T14:45:17.804Z,10.43
2019-04-30T14:48:09.466Z,8.17
2019-04-30T14:50:43.662Z,6.97
2019-04-30T14:53:39.079Z,7.67
2019-04-30T14:56:26.670Z,10.17
2019-04-30T14:59:29.612Z,8.33
2019-04-30T15:02:13.720Z,9.30
2019-04-30T15:04:44.513Z,7.97
2019-04-30T15:07:15.355Z,8.67
2019-04-30T15:09:46.798Z,7.67
2019-04-30T15:12:40.804Z,8.83
2019-04-30T15:15:19.252Z,9.10
2019-04-30T15:17:53.127Z,7.63
2019-04-30T15:20:25.726Z,9.03
2019-04-30T15:23:10.241Z,9.40
2019-04-30T15:25:41.171Z,8.30
2019-04-30T15:28:12.273Z,7.30
2019-04-30T15:30:46.530Z,6.70
2019-04-30T15:33:24.848Z,8.87
2019-04-30T15:36:12.997Z,6.13
2019-04-30T15:39:15.669Z,7.57
2019-04-30T15:41:46.850Z,7.50
2019-04-30T15:44:18.462Z,7.80
2019-04-30T15:46:54.320Z,7.60
2019-04-30T15:49:28.493Z,8.10
2019-04-30T15:52:02.537Z,8.90
2019-04-30T15:54:33.737Z,8.17
2019-04-30T15:57:08.906Z,9.77
2019-04-30T15:59:43.728Z,11.13
2019-04-30T16:02:40.208Z,8.80
2019-04-30T16:05:35.610Z,8.13
2019-04-30T16:08:23.861Z,7.60
2019-04-30T16:11:13.789Z,8.13
2019-04-30T16:14:18.756Z,7.87
2019-04-30T16:17:01.951Z,9.13
2019-04-30T16:19:34.823Z,8.93
2019-04-30T16:22:06.258Z,9.40
2019-04-30T16:24:38.889Z,8.23
2019-04-30T16:27:12.982Z,9.03
2019-04-30T16:29:43.695Z,10.13
2019-04-30T16:32:15.700Z,7.47
2019-04-30T16:34:46.562Z,6.87
2019-04-30T16:37:23.020Z,12.93
2019-04-30T16:39:54.002Z,9.70
2019-04-30T16:42:24.743Z,10.03
2019-04-30T16:44:56.197Z,9.83
2019-04-30T16:47:27.128Z,11.67
2019-04-30T16:49:58.910Z,9.17
2019-04-30T16:52:29.904Z,9.50
2019-04-30T16:55:03.452Z,11.27
2019-04-30T16:57:34.204Z,8.40
2019-04-30T17:00:12.654Z,9.77
2019-04-30T17:02:50.051Z,10.57
2019-04-30T17:05:45.758Z,7.70
2019-04-30T17:08:31.886Z,8.93
2019-04-30T17:11:31.220Z,10.67
2019-04-30T17:14:05.902Z,10.70
2019-04-30T17:16:40.851Z,10.17
2019-04-30T17:19:11.625Z,9.60
2019-04-30T17:21:47.580Z,11.37
2019-04-30T17:24:20.309Z,9.63
2019-04-30T17:26:54.673Z,11.93
2019-04-30T17:29:25.821Z,9.73
2019-04-30T17:31:57.054Z,12.30
2019-04-30T17:34:36.715Z,11.20
2019-04-30T17:37:09.317Z,9.47
2019-04-30T17:39:45.713Z,11.40
2019-04-30T17:42:23.507Z,14.53
2019-04-30T17:44:58.776Z,18.00
2019-04-30T17:47:28.790Z,27.67
2019-04-30T17:50:09.126Z,31.23
2019-04-30T17:52:40.562Z,35.87
2019-04-30T17:55:12.070Z,57.53
2019-04-30T17:57:43.513Z,38.83
2019-04-30T18:00:22.322Z,42.47
2019-04-30T18:02:52.595Z,26.93
2019-04-30T18:05:29.239Z,26.13
2019-04-30T18:08:15.692Z,21.63
2019-04-30T18:10:50.311Z,17.10
2019-04-30T18:13:27.547Z,15.13
2019-04-30T18:16:11.212Z,15.87
2019-04-30T18:19:03.355Z,17.80
2019-04-30T18:21:59.645Z,17.23
2019-04-30T18:24:59.359Z,22.17
2019-04-30T18:27:45.660Z,24.23
2019-04-30T18:30:24.088Z,21.70
2019-04-30T18:32:58.404Z,27.03
2019-04-30T18:35:31.379Z,33.50
2019-04-30T18:38:11.605Z,27.00
2019-04-30T18:40:49.572Z,22.70
2019-04-30T18:43:28.730Z,19.00
2019-04-30T18:46:03.355Z,20.80
2019-04-30T18:48:39.430Z,18.60
2019-04-30T18:51:29.998Z,22.83
2019-04-30T18:53:52.111Z,18.10
2019-04-30T18:56:26.691Z,20.97
2019-04-30T18:59:09.818Z,23.87
2019-04-30T19:01:50.299Z,24.10
2019-04-30T19:04:31.539Z,25.47
2019-04-30T19:07:25.135Z,21.67
2019-04-30T19:10:21.625Z,21.33
2019-04-30T19:13:36.363Z,22.93
2019-04-30T19:16:42.114Z,25.43
2019-04-30T19:19:20.075Z,30.60
2019-04-30T19:21:58.673Z,28.33
2019-04-30T19:24:38.007Z,34.63
2019-04-30T19:27:10.550Z,36.97
2019-04-30T19:29:42.928Z,41.50
2019-04-30T19:32:35.624Z,43.77
2019-04-30T19:35:10.719Z,40.60
2019-04-30T19:37:48.789Z,39.80
2019-04-30T19:40:22.848Z,42.27
2019-04-30T19:42:54.025Z,38.03
2019-04-30T19:45:34.106Z,37.47
2019-04-30T19:48:09.027Z,40.40
2019-04-30T19:50:42.140Z,38.53
2019-04-30T19:53:14.719Z,47.30
2019-04-30T19:55:50.315Z,51.63
2019-04-30T19:58:48.096Z,54.30
2019-04-30T20:01:33.794Z,58.57
2019-04-30T20:04:18.574Z,60.47
2019-04-30T20:07:06.351Z,59.37
2019-04-30T20:09:58.526Z,62.13
2019-04-30T20:12:35.375Z,57.20
2019-04-30T20:15:17.225Z,55.63
2019-04-30T20:17:43.324Z,56.70
2019-04-30T20:20:16.287Z,53.73
2019-04-30T20:22:51.961Z,65.57
2019-04-30T20:25:23.551Z,69.87
2019-04-30T20:28:11.985Z,79.83
2019-04-30T20:30:46.548Z,101.30
2019-04-30T20:33:24.972Z,80.87
2019-04-30T20:36:02.192Z,82.73
2019-04-30T20:39:06.142Z,79.20
2019-04-30T20:41:37.232Z,89.87
2019-04-30T20:44:12.195Z,80.93
2019-04-30T20:46:45.026Z,78.90
2019-04-30T20:49:19.217Z,73.10
2019-04-30T20:51:55.231Z,59.93
2019-04-30T20:54:25.998Z,57.27
2019-04-30T20:57:08.741Z,59.90
2019-04-30T20:59:46.059Z,57.57
2019-04-30T21:02:20.354Z,45.57
2019-04-30T21:04:51.361Z,49.53
2019-04-30T21:07:31.189Z,48.83
2019-04-30T21:10:10.133Z,58.03
2019-04-30T21:12:41.241Z,55.50
2019-04-30T21:15:15.921Z,63.37
2019-04-30T21:17:48.414Z,59.57
2019-04-30T21:20:23.008Z,64.10
2019-04-30T21:23:00.348Z,61.13
2019-04-30T21:25:31.217Z,53.27
2019-04-30T21:28:03.328Z,59.70
2019-04-30T21:30:34.469Z,57.03
2019-04-30T21:33:29.105Z,63.57
2019-04-30T21:36:05.373Z,58.80
2019-04-30T21:38:42.061Z,51.77
2019-04-30T21:41:14.640Z,55.40
2019-04-30T21:43:47.441Z,52.17
2019-04-30T21:46:39.517Z,49.03
2019-04-30T21:49:12.264Z,47.33
2019-04-30T21:51:47.896Z,44.00
2019-04-30T21:54:25.555Z,46.70
2019-04-30T21:57:00.947Z,43.03
2019-04-30T21:59:33.088Z,46.67
2019-04-30T22:02:09.773Z,63.93
2019-04-30T22:04:49.540Z,59.73
2019-04-30T22:07:21.276Z,54.13
2019-04-30T22:09:52.867Z,49.70
2019-04-30T22:12:24.429Z,48.07
2019-04-30T22:15:07.218Z,51.87
2019-04-30T22:17:39.224Z,48.60
2019-04-30T22:20:13.472Z,46.57
2019-04-30T22:22:44.587Z,42.57
2019-04-30T22:25:24.342Z,45.50
2019-04-30T22:27:55.512Z,47.47
2019-04-30T22:30:29.316Z,48.27
2019-04-30T22:33:04.502Z,43.77
2019-04-30T22:35:52.553Z,45.03
2019-04-30T22:38:31.793Z,47.37
2019-04-30T22:41:09.144Z,51.07
2019-04-30T22:43:42.037Z,57.83
2019-04-30T22:46:23.085Z,61.17
2019-04-30T22:48:58.685Z,59.17
2019-04-30T22:51:32.348Z,65.40
2019-04-30T22:54:04.364Z,68.30
2019-04-30T22:56:43.155Z,57.23
2019-04-30T22:59:19.427Z,58.97
2019-04-30T23:02:13.041Z,52.87
2019-04-30T23:04:46.199Z,60.40
2019-04-30T23:07:20.484Z,56.33
2019-04-30T23:09:51.779Z,57.67
2019-04-30T23:12:24.744Z,67.83
2019-04-30T23:14:56.560Z,65.83
2019-04-30T23:19:58.716Z,65.80
2019-04-30T23:22:30.992Z,68.07
2019-04-30T23:25:03.323Z,57.23
2019-04-30T23:27:34.235Z,60.73
2019-04-30T23:30:10.089Z,69.57
2019-04-30T23:32:41.602Z,72.17
2019-04-30T23:35:13.992Z,73.03
2019-04-30T23:37:45.065Z,74.57
2019-04-30T23:40:50.438Z,72.73
2019-04-30T23:43:22.550Z,67.63
2019-04-30T23:45:53.750Z,77.57
2019-04-30T23:48:24.819Z,65.17
2019-04-30T23:50:55.832Z,73.27
2019-04-30T23:53:30.393Z,71.87
2019-04-30T23:56:04.192Z,76.63
2019-04-30T23:58:38.125Z,81.00
